Hyderabad, India

1:35 PM IST on July 29, 2015 (GMT +0530)
Hyderabad | | Change Station
CLOSE
Current Station
Airport
Location: Hyderabad,
Elevation: 1788 ft
Nearby Weather Stations

Elev 1788 ft 17.45 °N, 78.47 °E | Updated 25 minutes ago

Scattered Clouds
Scattered Clouds
90 °F
Feels Like 89 °F
N
20
Wind Variable Wind from WNW

Today
High -- | Low -- °F
--% Chance of Precip.
Yesterday
High -- | Low -- °F
Precip. -- in
5:54 AM 6:50 PM
Waxing Gibbous, 94% visible
Pressure 29.83 in
Visibility 3.7 miles
Clouds Few 2000 ft
Scattered Clouds 2500 ft
Scattered Clouds 10000 ft
Heat Index 89 °F
Dew Point 59 °F
Humidity 36%
Rainfall 0.00 in
Snow Depth Not available.
UV 14 out of 12
Pollen Not available.
Air Quality Not available.
Flu Activity Not available.
METAR VOHY 290740Z 29017KT 6000 FEW020 SCT025 SCT100 32/15 Q1010 NOSIG

More Conditions Fewer Conditions

Pressure 29.83 in
Visibility 3.7 miles
Clouds Few 2000 ft
Scattered Clouds 2500 ft
Scattered Clouds 10000 ft
Heat Index 89 °F
Dew Point 59 °F
Humidity 36%
Rainfall 0.00 in
Snow Depth Not available.
UV 14 out of 12
Pollen Not available.
Air Quality Not available.
Flu Activity Not available.
METAR VOHY 290740Z 29017KT 6000 FEW020 SCT025 SCT100 32/15 Q1010 NOSIG

More Conditions Fewer Conditions

10-Day Weather Forecast

×

Almanac

Astronomy

Jul. 29, 2015 Rise Set
Actual Time
Civil Twilight
Nautical Twilight
Astronomical Twilight
Moon
Length of Visible Light
Length of Day
Tomorrow will be .
, % of the Moon is Illuminated

Today's Extremes

Country Highs Country Lows

Community

WunderPhotos

Upload Photos

1,842,068 photos uploaded!

WunderBlogs® & News

Nearby

Air Quality

  Air Quality AQ Index Pollutant
Not available.

Snow Depth

Station Depth Elevation

Earthquake Activity

City Distance Mag. Time & Date
Minimum magnitude displayed is 2.5.

Coastal Water Temperatures

Place Temperature

Stations

Nearby Weather Stations

Station Location Temp. Windchill Dew Point Humidity Wind Precip. Elev Updated Type